Time;durP1;ratioP1;P1;durP2;ratioP2;P2;SDS_P1;SDS_P2;PMS_P1;PMS_P2;Temp;Humidity;BMP_temperature;BMP_pressure;BME280_temperature;BME280_humidity;BME280_pressure;Samples;Min_cycle;Max_cycle;Signal;HPM_P1;HPM_P2
2023/03/19 00:01:14;;;;;;;;;;;;;;;;;;5023489;28;20031;-86
2023/03/19 00:03:39;;;;;;;;;;;;;;;;;;5022984;28;19967;-85
2023/03/19 00:06:05;;;;;;;;;;;;;;;;;;5021257;28;20886;-85
2023/03/19 00:08:30;;;;;;;;;;;;;;;;;;5022611;28;19921;-85
2023/03/19 00:10:55;;;;;;;;;;;;;;;;;;5024270;28;20465;-84
2023/03/19 00:13:20;;;;;;;;;;;;;;;;;;5025191;28;19920;-85
2023/03/19 00:15:49;;;;;;;;;;;;;;;;;;5022775;28;20389;-85
2023/03/19 00:18:14;;;;;;;;;;;;;;;;;;5024575;28;19919;-85
2023/03/19 00:20:40;;;;;;;;;;;;;;;;;;5022013;28;19917;-85
2023/03/19 00:23:05;;;;;;;;;;;;;;;;;;5022412;28;19923;-84
2023/03/19 00:25:30;;;;;;;;;;;;;;;;;;5020682;28;19925;-85
2023/03/19 00:27:55;;;;;;;;;;;;;;;;;;5020480;28;19967;-86
2023/03/19 00:30:21;;;;;;;;;;;;;;;;;;5023830;28;19924;-84
2023/03/19 00:32:46;;;;;;;;;;;;;;;;;;5021111;28;19928;-85
2023/03/19 00:35:11;;;;;;;;;;;;;;;;;;5024134;28;19913;-86
2023/03/19 00:37:36;;;;;;;;;;;;;;;;;;5024155;28;20020;-85
2023/03/19 00:40:02;;;;;;;;;;;;;;;;;;5023508;28;20017;-85
2023/03/19 00:42:27;;;;;;;;;;;;;;;;;;5022042;28;19914;-85
2023/03/19 00:44:53;;;;;;;;;;;;;;;;;;5023355;28;20286;-85
2023/03/19 00:47:18;;;;;;;;;;;;;;;;;;5022215;28;20303;-85
2023/03/19 00:49:43;;;;;;;;;;;;;;;;;;5025231;28;19917;-86
2023/03/19 00:52:08;;;;;;;;;;;;;;;;;;5025713;28;19913;-85
2023/03/19 00:54:33;;;;;;;;;;;;;;;;;;5022987;28;19979;-86
2023/03/19 00:56:58;;;;;;;;;;;;;;;;;;5020784;28;20297;-85
2023/03/19 00:59:24;;;;;;;;;;;;;;;;;;5023458;28;19913;-86
2023/03/19 01:01:50;;;;;;;;;;;;;;;;;;5022051;28;20347;-84
2023/03/19 01:04:15;;;;;;;;;;;;;;;;;;5019228;28;19979;-85
2023/03/19 01:06:40;;;;;;;;;;;;;;;;;;5024509;28;20606;-87
2023/03/19 01:09:06;;;;;;;;;;;;;;;;;;5024650;28;19927;-85
2023/03/19 01:11:31;;;;;;;;;;;;;;;;;;5026414;28;19921;-86
2023/03/19 01:13:56;;;;;;;;;;;;;;;;;;5022085;28;21383;-85
2023/03/19 01:16:21;;;;;;;;;;;;;;;;;;5021788;28;20201;-85
2023/03/19 01:18:46;;;;;;;;;;;;;;;;;;5020825;28;19963;-87
2023/03/19 01:21:12;;;;;;;;;;;;;;;;;;5023660;28;20158;-85
2023/03/19 01:23:37;;;;;;;;;;;;;;;;;;5021549;28;20004;-86
2023/03/19 01:26:03;;;;;;;;;;;;;;;;;;5021845;28;19932;-86
2023/03/19 01:28:28;;;;;;;;;;;;;;;;;;5033215;28;20393;-85
2023/03/19 01:30:53;;;;;;;;;;;;;;;;;;5022718;28;19917;-85
2023/03/19 01:33:19;;;;;;;;;;;;;;;;;;5017403;28;19968;-85
2023/03/19 01:35:44;;;;;;;;;;;;;;;;;;5021452;28;19940;-86
2023/03/19 01:38:09;;;;;;;;;;;;;;;;;;5023969;28;20373;-84
2023/03/19 01:40:35;;;;;;;;;;;;;;;;;;5023589;28;19913;-85
2023/03/19 01:43:00;;;;;;;;;;;;;;;;;;5020850;28;19931;-85
2023/03/19 01:45:25;;;;;;;;;;;;;;;;;;5020211;28;19999;-85
2023/03/19 01:47:51;;;;;;;;;;;;;;;;;;5019782;28;20026;-86
2023/03/19 01:50:16;;;;;;;;;;;;;;;;;;5021717;28;20191;-85
2023/03/19 01:52:41;;;;;;;;;;;;;;;;;;5023018;28;19925;-85
2023/03/19 01:55:06;;;;;;;;;;;;;;;;;;5023117;28;19948;-85
2023/03/19 01:57:31;;;;;;;;;;;;;;;;;;5030438;28;20384;-85
2023/03/19 01:59:56;;;;;;;;;;;;;;;;;;5023980;28;19913;-85
2023/03/19 02:02:22;;;;;;;;;;;;;;;;;;5024146;28;19920;-85
2023/03/19 02:04:47;;;;;;;;;;;;;;;;;;5018295;28;19913;-85
2023/03/19 02:07:12;;;;;;;;;;;;;;;;;;5022651;28;19917;-86
2023/03/19 02:09:37;;;;;;;;;;;;;;;;;;5022167;28;20481;-85
2023/03/19 02:12:03;;;;;;;;;;;;;;;;;;5021212;28;20477;-86
2023/03/19 02:14:28;;;;;;;;;;;;;;;;;;5024404;28;19913;-85
2023/03/19 02:16:53;;;;;;;;;;;;;;;;;;5016709;28;19940;-85
2023/03/19 02:19:18;;;;;;;;;;;;;;;;;;5021838;28;20573;-85
2023/03/19 02:21:43;;;;;;;;;;;;;;;;;;5023771;28;19917;-85
2023/03/19 02:24:08;;;;;;;;;;;;;;;;;;5022879;28;19955;-85
2023/03/19 02:26:34;;;;;;;;;;;;;;;;;;5022372;28;19932;-85
2023/03/19 02:28:59;;;;;;;;;;;;;;;;;;5022521;28;20363;-85
2023/03/19 02:31:24;;;;;;;;;;;;;;;;;;5035951;28;19918;-88
2023/03/19 02:33:50;;;;;;;;;;;;;;;;;;5029713;28;19925;-85
2023/03/19 02:36:15;;;;;;;;;;;;;;;;;;5019722;28;19956;-86
2023/03/19 02:38:40;;;;;;;;;;;;;;;;;;5023030;28;19917;-85
2023/03/19 02:41:06;;;;;;;;;;;;;;;;;;5022969;28;19967;-85
2023/03/19 02:43:31;;;;;;;;;;;;;;;;;;5019493;28;20409;-85
2023/03/19 02:45:56;;;;;;;;;;;;;;;;;;5024038;28;20008;-85
2023/03/19 02:48:21;;;;;;;;;;;;;;;;;;5023316;28;19913;-85
2023/03/19 02:50:47;;;;;;;;;;;;;;;;;;5022490;28;19983;-84
2023/03/19 02:53:12;;;;;;;;;;;;;;;;;;5024708;28;19913;-85
2023/03/19 02:55:37;;;;;;;;;;;;;;;;;;5025061;28;19920;-85
2023/03/19 02:58:02;;;;;;;;;;;;;;;;;;5025680;28;20375;-85
2023/03/19 03:00:27;;;;;;;;;;;;;;;;;;5023595;28;19913;-87
2023/03/19 03:02:53;;;;;;;;;;;;;;;;;;5023382;28;19913;-84
2023/03/19 03:05:18;;;;;;;;;;;;;;;;;;5021438;28;20294;-87
2023/03/19 03:07:43;;;;;;;;;;;;;;;;;;5020849;28;19914;-85
2023/03/19 03:10:09;;;;;;;;;;;;;;;;;;5025039;28;19913;-85
2023/03/19 03:12:36;;;;;;;;;;;;;;;;;;5024365;28;20248;-85
2023/03/19 03:15:01;;;;;;;;;;;;;;;;;;5025596;28;20184;-86
2023/03/19 03:17:26;;;;;;;;;;;;;;;;;;5023674;28;19968;-85
2023/03/19 03:19:52;;;;;;;;;;;;;;;;;;5024721;28;19959;-85
2023/03/19 03:22:17;;;;;;;;;;;;;;;;;;5024777;28;19929;-87
2023/03/19 03:24:42;;;;;;;;;;;;;;;;;;5024525;28;19913;-85
2023/03/19 03:27:08;;;;;;;;;;;;;;;;;;5022354;28;19982;-85
2023/03/19 03:29:33;;;;;;;;;;;;;;;;;;5032170;28;19956;-84
2023/03/19 03:31:58;;;;;;;;;;;;;;;;;;5024036;28;19913;-87
2023/03/19 03:34:23;;;;;;;;;;;;;;;;;;5027533;28;19917;-84
2023/03/19 03:36:49;;;;;;;;;;;;;;;;;;5029850;28;19956;-85
2023/03/19 03:39:15;;;;;;;;;;;;;;;;;;5026203;28;20275;-85
2023/03/19 03:41:40;;;;;;;;;;;;;;;;;;5031149;28;19940;-84
2023/03/19 03:44:05;;;;;;;;;;;;;;;;;;5032546;28;19917;-85
2023/03/19 03:46:31;;;;;;;;;;;;;;;;;;5032403;28;20582;-84
2023/03/19 03:48:56;;;;;;;;;;;;;;;;;;5027635;28;19914;-85
2023/03/19 03:51:21;;;;;;;;;;;;;;;;;;5029912;28;19967;-85
2023/03/19 03:53:46;;;;;;;;;;;;;;;;;;5030244;28;19985;-87
2023/03/19 03:56:12;;;;;;;;;;;;;;;;;;5029370;28;19924;-86
2023/03/19 03:58:37;;;;;;;;;;;;;;;;;;5029759;28;19940;-87
2023/03/19 04:01:02;;;;;;;;;;;;;;;;;;5033750;28;19949;-88
2023/03/19 04:03:27;;;;;;;;;;;;;;;;;;5033426;28;19967;-85
2023/03/19 04:05:52;;;;;;;;;;;;;;;;;;5034699;28;20172;-85
2023/03/19 04:08:17;;;;;;;;;;;;;;;;;;5034328;28;19928;-87
2023/03/19 04:10:43;;;;;;;;;;;;;;;;;;5025089;28;19921;-86
2023/03/19 04:13:08;;;;;;;;;;;;;;;;;;5041223;28;19913;-85
2023/03/19 04:15:34;;;;;;;;;;;;;;;;;;5038706;28;19924;-87
2023/03/19 04:17:59;;;;;;;;;;;;;;;;;;5033251;28;19928;-86
2023/03/19 04:20:24;;;;;;;;;;;;;;;;;;5037548;28;20314;-87
2023/03/19 04:22:49;;;;;;;;;;;;;;;;;;5040698;28;19913;-87
2023/03/19 04:25:15;;;;;;;;;;;;;;;;;;5039841;28;19917;-85
2023/03/19 04:27:40;;;;;;;;;;;;;;;;;;5036991;28;19921;-87
2023/03/19 04:30:06;;;;;;;;;;;;;;;;;;5038570;28;19921;-85
2023/03/19 04:32:32;;;;;;;;;;;;;;;;;;5039436;28;19917;-87
2023/03/19 04:34:57;;;;;;;;;;;;;;;;;;5036875;28;19921;-86
2023/03/19 04:37:22;;;;;;;;;;;;;;;;;;5037268;28;19913;-85
2023/03/19 04:39:48;;;;;;;;;;;;;;;;;;5030280;28;19957;-87
2023/03/19 04:42:13;;;;;;;;;;;;;;;;;;5036395;28;20099;-87
2023/03/19 04:44:38;;;;;;;;;;;;;;;;;;5035741;28;19913;-85
2023/03/19 04:47:03;;;;;;;;;;;;;;;;;;5029593;28;20369;-85
2023/03/19 04:49:29;;;;;;;;;;;;;;;;;;5020464;28;19913;-85
2023/03/19 04:51:55;;;;;;;;;;;;;;;;;;5023967;28;19939;-85
2023/03/19 04:54:20;;;;;;;;;;;;;;;;;;5022855;28;19998;-86
2023/03/19 04:56:45;;;;;;;;;;;;;;;;;;5023443;28;19913;-85
2023/03/19 04:59:10;;;;;;;;;;;;;;;;;;5024123;28;19967;-85
2023/03/19 05:01:36;;;;;;;;;;;;;;;;;;5023305;28;19913;-85
2023/03/19 05:04:01;;;;;;;;;;;;;;;;;;5019755;28;19928;-85
2023/03/19 05:06:27;;;;;;;;;;;;;;;;;;5022868;28;19923;-85
2023/03/19 05:08:52;;;;;;;;;;;;;;;;;;5024421;28;19921;-85
2023/03/19 05:11:17;;;;;;;;;;;;;;;;;;5034107;28;20801;-85
2023/03/19 05:13:42;;;;;;;;;;;;;;;;;;5021210;28;19921;-85
2023/03/19 05:16:08;;;;;;;;;;;;;;;;;;5025731;28;20458;-85
2023/03/19 05:18:34;;;;;;;;;;;;;;;;;;5021702;28;20136;-86
2023/03/19 05:20:59;;;;;;;;;;;;;;;;;;5023835;28;19967;-86
2023/03/19 05:23:24;;;;;;;;;;;;;;;;;;5022042;28;19913;-85
2023/03/19 05:25:49;;;;;;;;;;;;;;;;;;5029347;28;19921;-87
2023/03/19 05:28:15;;;;;;;;;;;;;;;;;;5017343;28;20335;-85
2023/03/19 05:30:40;;;;;;;;;;;;;;;;;;5026089;28;20076;-85
2023/03/19 05:33:05;;;;;;;;;;;;;;;;;;5023193;28;19921;-85
2023/03/19 05:35:30;;;;;;;;;;;;;;;;;;5022836;28;19928;-86
2023/03/19 05:37:55;;;;;;;;;;;;;;;;;;5022271;28;19921;-87
2023/03/19 05:40:22;;;;;;;;;;;;;;;;;;5020003;28;20620;-85
2023/03/19 05:42:47;;;;;;;;;;;;;;;;;;5017879;28;19920;-86
2023/03/19 05:45:12;;;;;;;;;;;;;;;;;;5024516;28;19999;-85
2023/03/19 05:47:38;;;;;;;;;;;;;;;;;;5020485;28;20359;-85
2023/03/19 05:50:03;;;;;;;;;;;;;;;;;;5019945;28;19916;-86
2023/03/19 05:52:28;;;;;;;;;;;;;;;;;;5017729;28;19924;-85
2023/03/19 05:54:53;;;;;;;;;;;;;;;;;;5020700;28;19921;-85
2023/03/19 05:57:18;;;;;;;;;;;;;;;;;;5022550;28;19936;-85
2023/03/19 05:59:44;;;;;;;;;;;;;;;;;;5016444;28;19917;-85
2023/03/19 06:02:09;;;;;;;;;;;;;;;;;;5021075;28;19920;-85
2023/03/19 06:04:34;;;;;;;;;;;;;;;;;;5023806;28;20362;-86
2023/03/19 06:07:00;;;;;;;;;;;;;;;;;;5020739;28;19925;-87
2023/03/19 06:09:25;;;;;;;;;;;;;;;;;;5022333;28;19921;-85
2023/03/19 06:11:50;;;;;;;;;;;;;;;;;;5021769;28;19932;-85
2023/03/19 06:14:15;;;;;;;;;;;;;;;;;;5023207;28;19920;-85
2023/03/19 06:16:40;;;;;;;;;;;;;;;;;;5020674;28;20434;-86
2023/03/19 06:19:06;;;;;;;;;;;;;;;;;;5018027;28;19955;-86
2023/03/19 06:21:31;;;;;;;;;;;;;;;;;;5021713;28;20183;-86
2023/03/19 06:23:56;;;;;;;;;;;;;;;;;;5022717;28;19921;-86
2023/03/19 06:26:21;;;;;;;;;;;;;;;;;;5036298;28;19921;-85
2023/03/19 06:28:46;;;;;;;;;;;;;;;;;;5021615;28;20505;-87
2023/03/19 06:31:12;;;;;;;;;;;;;;;;;;5019992;28;19917;-86
2023/03/19 06:33:37;;;;;;;;;;;;;;;;;;5019922;28;19925;-85
2023/03/19 06:36:02;;;;;;;;;;;;;;;;;;5020392;28;19921;-86
2023/03/19 06:38:28;;;;;;;;;;;;;;;;;;5030164;28;19917;-86
2023/03/19 06:40:53;;;;;;;;;;;;;;;;;;5022527;28;19944;-85
2023/03/19 06:43:18;;;;;;;;;;;;;;;;;;5018541;28;20318;-85
2023/03/19 06:45:43;;;;;;;;;;;;;;;;;;5022088;28;20363;-86
2023/03/19 06:48:09;;;;;;;;;;;;;;;;;;5018602;28;19979;-86
2023/03/19 06:50:34;;;;;;;;;;;;;;;;;;5021702;28;20282;-85
2023/03/19 06:52:59;;;;;;;;;;;;;;;;;;5018936;28;19913;-85
2023/03/19 06:55:24;;;;;;;;;;;;;;;;;;5022726;28;19925;-85
2023/03/19 06:57:50;;;;;;;;;;;;;;;;;;5032912;28;19919;-85
2023/03/19 07:00:15;;;;;;;;;;;;;;;;;;5019160;28;19924;-86
2023/03/19 07:02:40;;;;;;;;;;;;;;;;;;5019538;28;20353;-85
2023/03/19 07:05:05;;;;;;;;;;;;;;;;;;5020601;28;20016;-86
2023/03/19 07:07:31;;;;;;;;;;;;;;;;;;5013997;28;20448;-85
2023/03/19 07:09:56;;;;;;;;;;;;;;;;;;5021299;28;19995;-85
2023/03/19 07:12:21;;;;;;;;;;;;;;;;;;5020660;28;19917;-85
2023/03/19 07:14:46;;;;;;;;;;;;;;;;;;5020421;28;19918;-86
2023/03/19 07:17:11;;;;;;;;;;;;;;;;;;5013739;28;19956;-86
2023/03/19 07:19:36;;;;;;;;;;;;;;;;;;5022505;28;19913;-85
2023/03/19 07:22:02;;;;;;;;;;;;;;;;;;5021230;28;20035;-86
2023/03/19 07:24:27;;;;;;;;;;;;;;;;;;5018771;28;20003;-85
2023/03/19 07:26:53;;;;;;;;;;;;;;;;;;5020171;28;20278;-86
2023/03/19 07:29:18;;;;;;;;;;;;;;;;;;5034334;28;19916;-87
2023/03/19 07:31:43;;;;;;;;;;;;;;;;;;5024390;28;20805;-86
2023/03/19 07:34:08;;;;;;;;;;;;;;;;;;5023722;28;19924;-86
2023/03/19 07:36:34;;;;;;;;;;;;;;;;;;5022572;28;19913;-86
2023/03/19 07:38:59;;;;;;;;;;;;;;;;;;5024605;28;19913;-86
2023/03/19 07:41:24;;;;;;;;;;;;;;;;;;5022485;28;19921;-87
2023/03/19 07:43:50;;;;;;;;;;;;;;;;;;5017855;28;19924;-86
2023/03/19 07:46:15;;;;;;;;;;;;;;;;;;5019862;28;20371;-86
2023/03/19 07:48:40;;;;;;;;;;;;;;;;;;5021128;28;19917;-86
2023/03/19 07:51:06;;;;;;;;;;;;;;;;;;5022825;28;19921;-86
2023/03/19 07:53:31;;;;;;;;;;;;;;;;;;5022110;28;19920;-86
2023/03/19 07:55:56;;;;;;;;;;;;;;;;;;5023685;28;19913;-86
2023/03/19 07:58:21;;;;;;;;;;;;;;;;;;5020027;28;20778;-86
2023/03/19 08:00:46;;;;;;;;;;;;;;;;;;5019014;28;19967;-87
2023/03/19 08:03:12;;;;;;;;;;;;;;;;;;5015242;28;21235;-87
2023/03/19 08:05:37;;;;;;;;;;;;;;;;;;5024522;28;19972;-88
2023/03/19 08:08:02;;;;;;;;;;;;;;;;;;5019919;28;19921;-88
2023/03/19 08:10:27;;;;;;;;;;;;;;;;;;5025477;28;19921;-86
2023/03/19 08:12:53;;;;;;;;;;;;;;;;;;5022488;28;19919;-87
2023/03/19 08:15:18;;;;;;;;;;;;;;;;;;5027496;28;19921;-87
2023/03/19 08:17:43;;;;;;;;;;;;;;;;;;5024771;28;19941;-87
2023/03/19 08:20:08;;;;;;;;;;;;;;;;;;5040615;28;19921;-88
2023/03/19 08:22:34;;;;;;;;;;;;;;;;;;5028384;28;19977;-87
2023/03/19 08:24:59;;;;;;;;;;;;;;;;;;5029430;28;19913;-88
2023/03/19 08:27:25;;;;;;;;;;;;;;;;;;5022990;28;19923;-88
2023/03/19 08:29:50;;;;;;;;;;;;;;;;;;5025009;28;19931;-87
2023/03/19 08:32:18;;;;;;;;;;;;;;;;;;5030343;28;20007;-87
2023/03/19 08:34:43;;;;;;;;;;;;;;;;;;5028805;28;19913;-87
2023/03/19 08:37:08;;;;;;;;;;;;;;;;;;5030382;28;20425;-87
2023/03/19 08:39:33;;;;;;;;;;;;;;;;;;5029658;28;19913;-87
2023/03/19 08:42:01;;;;;;;;;;;;;;;;;;5025679;28;19913;-87
2023/03/19 08:44:26;;;;;;;;;;;;;;;;;;5027279;28;20256;-87
2023/03/19 08:46:51;;;;;;;;;;;;;;;;;;5028305;28;19932;-88
2023/03/19 08:49:17;;;;;;;;;;;;;;;;;;5023211;28;19997;-88
2023/03/19 08:51:42;;;;;;;;;;;;;;;;;;5024386;28;19951;-88
2023/03/19 08:54:10;;;;;;;;;;;;;;;;;;5030835;28;19917;-89
2023/03/19 08:56:35;;;;;;;;;;;;;;;;;;5030706;28;19909;-88
2023/03/19 08:59:00;;;;;;;;;;;;;;;;;;5029762;28;20375;-88
2023/03/19 09:01:25;;;;;;;;;;;;;;;;;;5022684;28;19928;-88
2023/03/19 09:03:50;;;;;;;;;;;;;;;;;;5039236;28;20015;-89
2023/03/19 09:06:16;;;;;;;;;;;;;;;;;;5027420;28;19924;-88
2023/03/19 09:08:41;;;;;;;;;;;;;;;;;;5023723;28;19952;-89
2023/03/19 09:11:06;;;;;;;;;;;;;;;;;;5025844;28;20012;-89
2023/03/19 09:13:31;;;;;;;;;;;;;;;;;;5027374;28;19917;-89
2023/03/19 09:15:57;;;;;;;;;;;;;;;;;;5028860;28;20442;-89
2023/03/19 09:18:25;;;;;;;;;;;;;;;;;;5028937;28;19917;-89
2023/03/19 09:20:50;;;;;;;;;;;;;;;;;;5029943;28;19920;-89
2023/03/19 09:23:23;;;;;;;;;;;;;;;;;;5030596;28;20357;-89
2023/03/19 09:25:49;;;;;;;;;;;;;;;;;;5025736;28;19956;-89
2023/03/19 09:28:14;;;;;;;;;;;;;;;;;;5030053;28;19949;-89
2023/03/19 09:30:39;;;;;;;;;;;;;;;;;;5030638;28;19923;-90
2023/03/19 09:33:04;;;;;;;;;;;;;;;;;;5031745;28;19920;-89
2023/03/19 09:35:31;;;;;;;;;;;;;;;;;;5022399;28;19914;-90
2023/03/19 09:37:56;;;;;;;;;;;;;;;;;;5028947;28;19948;-90
2023/03/19 09:40:21;;;;;;;;;;;;;;;;;;5024558;28;19956;-89
2023/03/19 09:42:47;;;;;;;;;;;;;;;;;;5030095;28;21590;-89
2023/03/19 09:45:12;;;;;;;;;;;;;;;;;;5029055;28;19919;-89
2023/03/19 09:47:38;;;;;;;;;;;;;;;;;;5028586;28;20382;-89
2023/03/19 09:50:04;;;;;;;;;;;;;;;;;;5029287;28;20390;-90
2023/03/19 09:52:29;;;;;;;;;;;;;;;;;;5026686;28;19910;-90
2023/03/19 09:54:54;;;;;;;;;;;;;;;;;;5029539;28;20353;-90
2023/03/19 09:57:20;;;;;;;;;;;;;;;;;;5028554;28;19915;-90
2023/03/19 09:59:45;;;;;;;;;;;;;;;;;;5028536;28;20581;-90
2023/03/19 10:02:10;;;;;;;;;;;;;;;;;;5029776;28;19917;-89
2023/03/19 10:04:35;;;;;;;;;;;;;;;;;;5018154;28;19913;-89
2023/03/19 10:07:01;;;;;;;;;;;;;;;;;;5022606;28;19928;-90
2023/03/19 10:09:26;;;;;;;;;;;;;;;;;;5028797;28;19921;-90
2023/03/19 10:11:51;;;;;;;;;;;;;;;;;;5028489;28;20382;-90
2023/03/19 10:14:17;;;;;;;;;;;;;;;;;;5030034;28;19917;-90
2023/03/19 10:16:42;;;;;;;;;;;;;;;;;;5030306;28;19935;-89
2023/03/19 10:19:07;;;;;;;;;;;;;;;;;;5030223;28;19940;-90
2023/03/19 10:21:33;;;;;;;;;;;;;;;;;;5030152;28;19913;-90
2023/03/19 10:23:59;;;;;;;;;;;;;;;;;;5029968;28;19913;-89
2023/03/19 10:26:24;;;;;;;;;;;;;;;;;;5029299;28;19917;-90
2023/03/19 10:28:49;;;;;;;;;;;;;;;;;;5029704;28;20264;-90
2023/03/19 10:31:14;;;;;;;;;;;;;;;;;;5028040;28;19913;-89
2023/03/19 10:33:40;;;;;;;;;;;;;;;;;;5026554;28;19914;-89
2023/03/19 10:36:05;;;;;;;;;;;;;;;;;;5026090;28;19925;-89
2023/03/19 10:38:32;;;;;;;;;;;;;;;;;;5027213;28;20469;-89
2023/03/19 10:41:04;;;;;;;;;;;;;;;;;;5023869;28;19967;-89
2023/03/19 10:43:30;;;;;;;;;;;;;;;;;;5025686;28;20387;-89
2023/03/19 10:45:55;;;;;;;;;;;;;;;;;;5023555;28;20274;-88
2023/03/19 10:48:21;;;;;;;;;;;;;;;;;;5022632;28;20367;-89
2023/03/19 10:50:46;;;;;;;;;;;;;;;;;;5020241;28;19914;-88
2023/03/19 10:53:11;;;;;;;;;;;;;;;;;;5022601;28;20224;-89
2023/03/19 10:55:37;;;;;;;;;;;;;;;;;;5021970;28;20305;-89
2023/03/19 10:58:02;;;;;;;;;;;;;;;;;;5023618;28;20176;-89
2023/03/19 11:00:37;;;;;;;;;;;;;;;;;;5020380;28;20419;-89
2023/03/19 11:03:04;;;;;;;;;;;;;;;;;;5021937;28;19917;-89
2023/03/19 11:05:31;;;;;;;;;;;;;;;;;;5026842;28;20291;-89
2023/03/19 11:07:57;;;;;;;;;;;;;;;;;;5025817;28;19913;-89
2023/03/19 11:10:22;;;;;;;;;;;;;;;;;;5025640;28;19917;-89
2023/03/19 11:12:47;;;;;;;;;;;;;;;;;;5024153;28;19986;-89
2023/03/19 11:15:13;;;;;;;;;;;;;;;;;;5024436;28;20004;-89
2023/03/19 11:17:38;;;;;;;;;;;;;;;;;;5021140;28;19913;-89
2023/03/19 11:20:03;;;;;;;;;;;;;;;;;;5023398;28;19971;-90
2023/03/19 11:22:28;;;;;;;;;;;;;;;;;;5022246;28;19936;-90
2023/03/19 11:24:53;;;;;;;;;;;;;;;;;;5021702;28;19917;-89
2023/03/19 11:27:19;;;;;;;;;;;;;;;;;;5022978;28;19922;-90
2023/03/19 11:29:44;;;;;;;;;;;;;;;;;;5024984;28;19960;-88
2023/03/19 11:32:09;;;;;;;;;;;;;;;;;;5023223;28;19943;-90
2023/03/19 11:34:37;;;;;;;;;;;;;;;;;;5020988;28;20438;-90
2023/03/19 11:37:02;;;;;;;;;;;;;;;;;;5019026;28;19940;-89
2023/03/19 11:39:29;;;;;;;;;;;;;;;;;;5024841;28;19917;-90
2023/03/19 11:41:54;;;;;;;;;;;;;;;;;;5025750;28;19921;-90
2023/03/19 11:44:19;;;;;;;;;;;;;;;;;;5019342;28;20287;-89
2023/03/19 11:46:45;;;;;;;;;;;;;;;;;;5022862;28;19917;-90
2023/03/19 11:49:11;;;;;;;;;;;;;;;;;;5020440;28;19970;-91
2023/03/19 11:51:36;;;;;;;;;;;;;;;;;;5021358;28;19929;-90
2023/03/19 11:54:02;;;;;;;;;;;;;;;;;;5026318;28;19921;-90
2023/03/19 11:56:28;;;;;;;;;;;;;;;;;;5020096;28;19921;-90
2023/03/19 11:58:57;;;;;;;;;;;;;;;;;;5024881;28;19928;-89
2023/03/19 12:01:25;;;;;;;;;;;;;;;;;;5029646;28;19932;-89
2023/03/19 12:03:53;;;;;;;;;;;;;;;;;;5028015;28;19924;-89
2023/03/19 12:06:18;;;;;;;;;;;;;;;;;;5029624;28;19917;-89
2023/03/19 12:08:52;;;;;;;;;;;;;;;;;;5028920;28;19921;-89
2023/03/19 12:11:20;;;;;;;;;;;;;;;;;;5030010;28;20330;-89
2023/03/19 12:13:51;;;;;;;;;;;;;;;;;;5030707;28;19913;-89
2023/03/19 12:16:19;;;;;;;;;;;;;;;;;;5041429;28;19939;-89
2023/03/19 12:18:54;;;;;;;;;;;;;;;;;;;;;
2023/03/19 12:21:30;;;;;;;;;;;;;;;;;;;;;
2023/03/19 12:24:05;;;;;;;;;;;;;;;;;;;;;
2023/03/19 12:26:37;;;;;;;;;;;;;;;;;;5028066;28;20057;-89
2023/03/19 12:29:05;;;;;;;;;;;;;;;;;;5026272;28;19971;-88
2023/03/19 12:31:30;;;;;;;;;;;;;;;;;;5029066;28;19977;-89
2023/03/19 12:33:58;;;;;;;;;;;;;;;;;;5029233;28;19980;-89
2023/03/19 12:36:26;;;;;;;;;;;;;;;;;;5043063;28;19917;-89
2023/03/19 12:38:54;;;;;;;;;;;;;;;;;;5024338;28;19921;-89
2023/03/19 12:41:22;;;;;;;;;;;;;;;;;;5028972;28;19963;-89
2023/03/19 12:43:48;;;;;;;;;;;;;;;;;;5026713;28;19933;-88
2023/03/19 12:46:20;;;;;;;;;;;;;;;;;;5030023;28;19933;-88
2023/03/19 12:49:03;;;;;;;;;;;;;;;;;;5024901;28;19953;-89
2023/03/19 12:51:38;;;;;;;;;;;;;;;;;;;;;
2023/03/19 12:54:25;;;;;;;;;;;;;;;;;;5029006;28;19924;-88
2023/03/19 12:56:49;;;;;;;;;;;;;;;;;;5026548;28;19924;-89
2023/03/19 12:59:17;;;;;;;;;;;;;;;;;;5023953;28;20008;-89
2023/03/19 13:01:42;;;;;;;;;;;;;;;;;;5024398;28;19943;-87
2023/03/19 13:04:08;;;;;;;;;;;;;;;;;;5030386;28;19917;-88
2023/03/19 13:06:33;;;;;;;;;;;;;;;;;;5022673;28;19953;-88
2023/03/19 13:09:19;;;;;;;;;;;;;;;;;;5024847;28;19956;-88
2023/03/19 13:11:44;;;;;;;;;;;;;;;;;;5023378;28;19940;-88
2023/03/19 13:14:11;;;;;;;;;;;;;;;;;;5020898;28;20374;-88
2023/03/19 13:16:36;;;;;;;;;;;;;;;;;;5026480;28;20371;-88
2023/03/19 13:19:15;;;;;;;;;;;;;;;;;;5027056;28;19936;-88
2023/03/19 13:21:49;;;;;;;;;;;;;;;;;;5024457;28;19956;-88
2023/03/19 13:24:16;;;;;;;;;;;;;;;;;;5024441;28;20036;-88
2023/03/19 13:26:44;;;;;;;;;;;;;;;;;;5027458;28;19925;-88
2023/03/19 13:29:10;;;;;;;;;;;;;;;;;;5027861;28;19948;-88
2023/03/19 13:31:35;;;;;;;;;;;;;;;;;;5027254;28;19945;-88
2023/03/19 13:36:48;;;;;;;;;;;;;;;;;;5021273;28;19913;-88
2023/03/19 13:39:13;;;;;;;;;;;;;;;;;;5027539;28;19917;-88
2023/03/19 13:41:41;;;;;;;;;;;;;;;;;;5028583;28;19919;-88
2023/03/19 13:44:06;;;;;;;;;;;;;;;;;;5022466;28;19929;-88
2023/03/19 13:46:47;;;;;;;;;;;;;;;;;;5020596;28;19922;-88
2023/03/19 13:49:14;;;;;;;;;;;;;;;;;;5022691;28;19975;-88
2023/03/19 13:51:43;;;;;;;;;;;;;;;;;;5032800;28;19918;-88
2023/03/19 13:54:22;;;;;;;;;;;;;;;;;;5027021;28;19917;-88
2023/03/19 13:56:49;;;;;;;;;;;;;;;;;;5023716;28;19924;-88
2023/03/19 13:59:17;;;;;;;;;;;;;;;;;;5026720;28;19917;-88
2023/03/19 14:01:46;;;;;;;;;;;;;;;;;;5020388;28;20306;-88
2023/03/19 14:04:11;;;;;;;;;;;;;;;;;;5025659;28;21666;-88
2023/03/19 14:06:36;;;;;;;;;;;;;;;;;;5022222;28;19921;-88
2023/03/19 14:09:04;;;;;;;;;;;;;;;;;;5020256;28;20378;-88
2023/03/19 14:11:29;;;;;;;;;;;;;;;;;;5033109;28;20048;-88
2023/03/19 14:13:57;;;;;;;;;;;;;;;;;;5020838;28;19952;-88
2023/03/19 14:16:22;;;;;;;;;;;;;;;;;;5025868;28;20402;-88
2023/03/19 14:18:50;;;;;;;;;;;;;;;;;;5027026;28;19941;-88
2023/03/19 14:21:15;;;;;;;;;;;;;;;;;;5019014;28;20036;-88
2023/03/19 14:23:43;;;;;;;;;;;;;;;;;;5022406;28;20019;-88
2023/03/19 14:26:09;;;;;;;;;;;;;;;;;;5018491;28;19917;-88
2023/03/19 14:28:35;;;;;;;;;;;;;;;;;;5022003;28;19936;-88
2023/03/19 14:31:00;;;;;;;;;;;;;;;;;;5020156;28;19963;-87
2023/03/19 14:33:25;;;;;;;;;;;;;;;;;;5016431;28;19968;-88
2023/03/19 14:35:53;;;;;;;;;;;;;;;;;;5016985;28;19975;-88
2023/03/19 14:38:18;;;;;;;;;;;;;;;;;;5022929;28;19956;-88
2023/03/19 14:40:43;;;;;;;;;;;;;;;;;;5019080;28;19952;-88
2023/03/19 14:43:10;;;;;;;;;;;;;;;;;;5024377;28;19913;-88
2023/03/19 14:45:36;;;;;;;;;;;;;;;;;;5020404;28;19917;-88
2023/03/19 14:48:01;;;;;;;;;;;;;;;;;;5021336;28;19928;-88
2023/03/19 14:50:26;;;;;;;;;;;;;;;;;;5037583;28;19914;-88
2023/03/19 14:52:51;;;;;;;;;;;;;;;;;;5028231;28;19921;-88
2023/03/19 14:55:17;;;;;;;;;;;;;;;;;;5030299;28;19917;-88
2023/03/19 14:57:42;;;;;;;;;;;;;;;;;;5025253;28;20282;-88
2023/03/19 15:00:28;;;;;;;;;;;;;;;;;;5030630;28;19913;-88
2023/03/19 15:02:53;;;;;;;;;;;;;;;;;;5026108;28;19913;-88
2023/03/19 15:05:18;;;;;;;;;;;;;;;;;;5026382;28;20381;-88
2023/03/19 15:07:43;;;;;;;;;;;;;;;;;;5021799;28;19913;-88
2023/03/19 15:10:08;;;;;;;;;;;;;;;;;;5026659;28;20397;-88
2023/03/19 15:12:34;;;;;;;;;;;;;;;;;;5019045;28;19924;-88
2023/03/19 15:14:59;;;;;;;;;;;;;;;;;;5019379;28;20307;-87
2023/03/19 15:17:24;;;;;;;;;;;;;;;;;;5025194;28;20369;-88
2023/03/19 15:19:52;;;;;;;;;;;;;;;;;;5025679;28;19910;-88
2023/03/19 15:22:17;;;;;;;;;;;;;;;;;;5024241;28;19917;-88
2023/03/19 15:24:45;;;;;;;;;;;;;;;;;;5022851;28;20398;-87
2023/03/19 15:27:10;;;;;;;;;;;;;;;;;;5037752;28;20392;-88
2023/03/19 15:29:35;;;;;;;;;;;;;;;;;;5025803;28;20016;-88
2023/03/19 15:32:03;;;;;;;;;;;;;;;;;;5025136;28;20163;-88
2023/03/19 15:34:28;;;;;;;;;;;;;;;;;;5023441;28;20477;-87
2023/03/19 15:36:54;;;;;;;;;;;;;;;;;;5031569;28;19913;-87
2023/03/19 15:39:19;;;;;;;;;;;;;;;;;;5028298;28;19918;-88
2023/03/19 15:41:44;;;;;;;;;;;;;;;;;;5019064;28;20115;-87
2023/03/19 15:44:10;;;;;;;;;;;;;;;;;;5024590;28;19960;-87
2023/03/19 15:46:35;;;;;;;;;;;;;;;;;;5031400;28;20853;-89
2023/03/19 15:49:00;;;;;;;;;;;;;;;;;;5029160;28;19912;-91
2023/03/19 15:51:25;;;;;;;;;;;;;;;;;;5020862;28;19913;-90
2023/03/19 15:53:50;;;;;;;;;;;;;;;;;;5016258;28;19925;-89
2023/03/19 15:56:16;;;;;;;;;;;;;;;;;;5023106;28;20394;-90
2023/03/19 15:58:41;;;;;;;;;;;;;;;;;;5024772;28;20732;-90
2023/03/19 16:01:06;;;;;;;;;;;;;;;;;;5022638;28;19917;-90
2023/03/19 16:03:31;;;;;;;;;;;;;;;;;;5024512;28;20019;-90
2023/03/19 16:05:57;;;;;;;;;;;;;;;;;;5022367;28;19943;-90
2023/03/19 16:08:22;;;;;;;;;;;;;;;;;;5024461;28;19917;-91
2023/03/19 16:10:47;;;;;;;;;;;;;;;;;;5039032;28;19927;-92
